Date,TemperatureHighF,TemperatureAvgF,TemperatureLowF,DewpointHighF,DewpointAvgF,DewpointLowF,HumidityHigh,HumidityAvg,HumidityLow,PressureMaxIn,PressureMinIn,WindSpeedMaxMPH,WindSpeedAvgMPH,GustSpeedMaxMPH,PrecipitationSumIn
2013-1-1,48.2,42.4,0.0,44.0,35.0,-5.7,86,75,67,30.26,29.99,22,1,22,0.00
2013-1-2,43.3,38.3,34.7,36.0,28.6,26.9,78,68,59,30.31,30.21,8,0,8,0.00
2013-1-3,53.9,42.0,32.3,33.7,29.2,25.3,76,62,42,30.43,30.28,12,0,12,0.00
2013-1-4,56.4,44.1,0.0,35.2,30.3,-11.3,64,57,44,30.48,30.31,0,0,0,0.00
2013-1-5,59.7,47.9,41.9,39.4,37.0,-10.2,80,67,47,30.32,30.16,8,0,8,0.00
2013-1-6,62.4,47.6,37.7,35.4,29.8,26.1,73,52,29,30.37,30.24,11,0,11,0.00
2013-1-7,56.4,46.2,35.7,35.1,30.2,24.6,67,54,41,30.30,30.05,12,0,12,0.00
2013-1-8,50.5,49.1,48.0,46.3,41.1,32.5,89,75,54,30.07,29.93,10,0,10,1.69
2013-1-9,56.4,53.0,48.9,54.7,51.1,45.6,95,93,90,30.09,29.88,16,1,16,1.08
2013-1-10,60.9,55.4,51.8,55.0,49.9,44.9,95,82,66,29.95,29.86,12,1,12,0.04
2013-1-11,70.8,60.0,49.8,61.1,50.2,43.4,87,71,47,29.91,29.72,12,2,12,0.00
2013-1-12,67.8,56.7,38.8,63.2,50.4,29.4,92,80,65,29.93,29.65,13,3,14,0.10
2013-1-13,49.8,40.0,33.8,31.5,24.6,20.3,69,55,40,30.25,29.90,14,4,14,0.00
2013-1-14,51.6,40.0,33.2,27.3,22.6,18.8,59,50,38,30.31,30.17,11,2,11,0.00
2013-1-15,40.8,37.3,34.3,30.8,26.2,21.9,75,64,53,30.20,30.12,11,1,11,0.02
2013-1-16,53.7,40.3,29.3,31.4,21.4,18.2,64,48,31,30.27,30.12,10,0,10,0.00
2013-1-17,64.5,49.7,39.0,36.1,30.3,22.8,65,48,32,30.46,30.20,10,1,10,0.00
2013-1-18,65.6,51.3,39.0,36.7,33.1,28.4,68,51,32,30.47,30.22,11,1,11,0.00
2013-1-19,68.9,55.3,44.9,45.3,40.3,34.1,72,58,29,30.22,30.08,11,1,11,0.00
2013-1-20,73.0,56.6,44.4,47.3,41.0,36.6,77,58,37,30.18,30.02,8,0,8,0.00
2013-1-21,63.3,52.2,44.9,40.3,32.6,26.3,67,48,35,30.27,30.07,11,1,11,0.00
2013-1-22,68.1,53.9,42.9,48.2,37.5,27.5,67,54,44,30.27,30.12,9,0,9,0.00
2013-1-23,77.9,63.7,54.1,55.6,51.5,44.9,79,66,46,30.22,30.07,11,1,11,0.00
2013-1-24,81.5,66.3,56.1,60.2,52.9,43.5,80,63,46,30.14,29.97,9,0,9,0.00
2013-1-25,58.6,52.7,50.3,47.9,42.7,38.3,81,69,58,30.17,29.99,11,1,11,0.00
2013-1-26,57.7,51.9,48.5,49.0,44.5,38.4,87,76,64,30.19,30.05,7,0,7,0.00
2013-1-27,73.7,62.9,51.8,62.5,56.4,48.1,93,80,59,30.05,29.87,16,2,16,0.00
2013-1-28,77.5,71.5,67.2,66.0,63.7,62.1,87,77,62,29.95,29.79,14,4,14,0.00
2013-1-29,78.6,67.8,56.1,66.1,58.4,31.4,84,73,39,29.80,29.40,15,4,15,0.33
2013-1-30,56.1,49.6,43.8,36.0,27.7,20.1,65,44,28,30.10,29.63,13,3,13,0.00
2013-1-31,70.3,53.2,40.1,30.7,26.7,23.3,55,38,19,30.28,30.03,10,1,10,0.00